createdAt,value
2019-03-05T00:00:42.264Z,4.37
2019-03-05T00:03:15.437Z,4.32
2019-03-05T00:05:48.499Z,4.39
2019-03-05T00:08:21.530Z,4.43
2019-03-05T00:10:54.520Z,4.39
2019-03-05T00:13:27.950Z,4.41
2019-03-05T00:16:01.474Z,4.44
2019-03-05T00:18:34.547Z,4.39
2019-03-05T00:21:07.593Z,4.42
2019-03-05T00:23:56.255Z,4.43
2019-03-05T00:26:31.464Z,4.39
2019-03-05T00:29:40.345Z,4.35
2019-03-05T00:32:13.363Z,4.36
2019-03-05T00:35:35.722Z,4.31
2019-03-05T00:38:27.337Z,4.20
2019-03-05T00:41:33.728Z,4.20
2019-03-05T00:44:32.826Z,4.29
2019-03-05T00:47:35.757Z,4.39
2019-03-05T00:50:32.206Z,4.38
2019-03-05T00:53:34.533Z,4.41
2019-03-05T00:56:27.382Z,4.51
2019-03-05T00:59:25.822Z,4.59
2019-03-05T01:02:16.125Z,4.59
2019-03-05T01:05:51.723Z,4.09
2019-03-05T01:08:26.916Z,3.59
2019-03-05T01:11:00.532Z,3.67
2019-03-05T01:13:33.220Z,3.62
2019-03-05T01:16:07.589Z,3.61
2019-03-05T01:18:41.264Z,3.76
2019-03-05T01:21:14.807Z,3.85
2019-03-05T01:23:48.158Z,3.93
2019-03-05T01:26:21.269Z,4.03
2019-03-05T01:28:54.752Z,4.17
2019-03-05T01:31:40.521Z,4.22
2019-03-05T01:34:24.049Z,4.41
2019-03-05T01:36:58.895Z,4.47
2019-03-05T01:39:57.480Z,4.46
2019-03-05T01:42:29.936Z,4.42
2019-03-05T01:45:04.214Z,4.54
2019-03-05T01:47:37.817Z,4.56
2019-03-05T01:50:12.748Z,4.72
2019-03-05T01:52:46.092Z,4.74
2019-03-05T01:55:19.479Z,4.72
2019-03-05T01:57:52.496Z,4.75
2019-03-05T02:00:25.113Z,4.73
2019-03-05T02:02:58.282Z,4.73
2019-03-05T02:05:31.300Z,4.76
2019-03-05T02:08:04.025Z,4.77
2019-03-05T02:10:37.103Z,4.81
2019-03-05T02:13:10.014Z,4.88
2019-03-05T02:15:44.516Z,4.93
2019-03-05T02:18:18.830Z,4.82
2019-03-05T02:20:52.562Z,4.78
2019-03-05T02:23:36.800Z,4.87
2019-03-05T02:27:06.182Z,4.83
2019-03-05T02:30:17.338Z,4.86
2019-03-05T02:33:21.928Z,4.85
2019-03-05T02:36:06.912Z,4.87
2019-03-05T02:39:11.645Z,4.86
2019-03-05T02:42:17.613Z,4.95
2019-03-05T02:45:23.286Z,4.85
2019-03-05T02:48:14.410Z,4.94
2019-03-05T02:51:13.325Z,4.93
2019-03-05T02:54:22.870Z,4.88
2019-03-05T02:57:05.960Z,4.90
2019-03-05T02:59:39.074Z,4.93
2019-03-05T03:02:44.455Z,4.90
2019-03-05T03:05:21.852Z,4.90
2019-03-05T03:07:54.747Z,4.91
2019-03-05T03:10:28.538Z,4.99
2019-03-05T03:13:02.414Z,4.94
2019-03-05T03:15:35.535Z,4.95
2019-03-05T03:18:09.515Z,4.94
2019-03-05T03:20:43.083Z,4.95
2019-03-05T03:23:16.547Z,5.05
2019-03-05T03:25:50.310Z,4.97
2019-03-05T03:28:25.316Z,4.93
2019-03-05T03:30:59.820Z,4.88
2019-03-05T03:33:32.727Z,4.84
2019-03-05T03:36:09.054Z,4.89
2019-03-05T03:38:42.222Z,4.89
2019-03-05T03:41:16.082Z,4.82
2019-03-05T03:43:50.489Z,4.82
2019-03-05T03:46:23.594Z,4.90
2019-03-05T03:48:58.474Z,4.96
2019-03-05T03:51:32.039Z,5.00
2019-03-05T03:54:05.001Z,5.03
2019-03-05T03:56:38.274Z,5.09
2019-03-05T03:59:13.015Z,5.08
2019-03-05T04:01:48.965Z,5.09
2019-03-05T04:04:22.156Z,5.00
2019-03-05T04:06:55.920Z,4.92
2019-03-05T04:09:29.643Z,4.86
2019-03-05T04:12:02.559Z,4.79
2019-03-05T04:14:34.952Z,4.71
2019-03-05T04:17:08.311Z,4.59
2019-03-05T04:19:41.358Z,4.42
2019-03-05T04:22:15.987Z,4.35
2019-03-05T04:24:49.238Z,4.19
2019-03-05T04:27:22.923Z,4.02
2019-03-05T04:29:55.529Z,3.95
2019-03-05T04:32:29.800Z,3.91
2019-03-05T04:35:02.943Z,3.84
2019-03-05T04:37:36.823Z,3.75
2019-03-05T04:40:10.195Z,3.70
2019-03-05T04:42:44.223Z,3.72
2019-03-05T04:45:53.284Z,3.64
2019-03-05T04:48:27.234Z,3.68
2019-03-05T04:51:06.723Z,3.63
2019-03-05T04:53:39.724Z,3.55
2019-03-05T04:56:13.041Z,3.51
2019-03-05T04:58:47.443Z,3.47
2019-03-05T05:01:19.965Z,3.44
2019-03-05T05:03:52.985Z,3.38
2019-03-05T05:06:26.001Z,3.37
2019-03-05T05:09:01.045Z,3.39
2019-03-05T05:11:37.402Z,3.37
2019-03-05T05:14:11.410Z,3.33
2019-03-05T05:16:44.738Z,3.40
2019-03-05T05:19:19.955Z,3.46
2019-03-05T05:21:52.421Z,3.52
2019-03-05T05:24:25.681Z,3.55
2019-03-05T05:27:00.148Z,3.64
2019-03-05T05:29:33.634Z,3.67
2019-03-05T05:32:06.728Z,3.76
2019-03-05T05:34:40.591Z,3.89
2019-03-05T05:37:14.463Z,3.89
2019-03-05T05:40:21.959Z,3.87
2019-03-05T05:42:55.719Z,3.87
2019-03-05T05:45:46.121Z,3.86
2019-03-05T05:48:19.006Z,4.01
2019-03-05T05:50:52.194Z,4.05
2019-03-05T05:53:25.801Z,4.01
2019-03-05T05:55:58.441Z,3.97
2019-03-05T05:58:31.931Z,4.00
2019-03-05T06:01:08.442Z,3.99
2019-03-05T06:03:41.850Z,3.99
2019-03-05T06:06:15.352Z,3.91
2019-03-05T06:08:48.946Z,3.88
2019-03-05T06:11:22.650Z,4.00
2019-03-05T06:13:56.051Z,4.03
2019-03-05T06:16:29.441Z,4.08
2019-03-05T06:19:02.742Z,4.11
2019-03-05T06:21:36.523Z,4.08
2019-03-05T06:24:09.956Z,4.13
2019-03-05T06:26:43.497Z,4.17
2019-03-05T06:29:17.048Z,4.16
2019-03-05T06:31:50.451Z,4.22
2019-03-05T06:34:23.606Z,4.19
2019-03-05T06:36:57.444Z,4.15
2019-03-05T06:39:30.511Z,4.09
2019-03-05T06:42:03.144Z,4.12
2019-03-05T06:44:36.499Z,4.06
2019-03-05T06:47:09.599Z,4.07
2019-03-05T06:49:42.200Z,4.03
2019-03-05T06:52:15.168Z,4.13
2019-03-05T06:54:48.501Z,4.22
2019-03-05T06:57:21.192Z,4.26
2019-03-05T06:59:56.405Z,4.25
2019-03-05T07:02:29.335Z,4.30
2019-03-05T07:05:03.122Z,4.32
2019-03-05T07:07:37.510Z,4.39
2019-03-05T07:10:32.186Z,4.41
2019-03-05T07:13:18.591Z,4.41
2019-03-05T07:16:21.188Z,4.23
2019-03-05T07:19:03.995Z,3.98
2019-03-05T07:22:01.578Z,3.66
2019-03-05T07:25:02.920Z,3.38
2019-03-05T07:27:38.094Z,3.29
2019-03-05T07:30:18.817Z,3.27
2019-03-05T07:32:51.488Z,3.26
2019-03-05T07:35:25.517Z,3.24
2019-03-05T07:37:59.215Z,3.32
2019-03-05T07:40:32.710Z,3.33
2019-03-05T07:43:06.136Z,3.32
2019-03-05T07:45:39.104Z,3.38
2019-03-05T07:48:12.521Z,3.50
2019-03-05T07:50:45.975Z,3.59
2019-03-05T07:53:18.970Z,3.70
2019-03-05T07:55:52.275Z,3.81
2019-03-05T07:58:24.540Z,3.91
2019-03-05T08:00:57.529Z,3.91
2019-03-05T08:03:31.248Z,4.02
2019-03-05T08:06:04.721Z,4.28
2019-03-05T08:09:14.394Z,4.18
2019-03-05T08:11:47.342Z,4.45
2019-03-05T08:14:47.199Z,4.49
2019-03-05T08:17:21.150Z,4.58
2019-03-05T08:19:54.507Z,4.91
2019-03-05T08:22:27.177Z,5.14
2019-03-05T08:25:00.350Z,5.45
2019-03-05T08:27:34.384Z,5.31
2019-03-05T08:30:14.220Z,5.25
2019-03-05T08:32:45.390Z,4.83
2019-03-05T08:35:20.281Z,4.81
2019-03-05T08:37:53.938Z,4.80
2019-03-05T08:40:27.282Z,4.82
2019-03-05T08:43:00.644Z,4.87
2019-03-05T08:45:35.252Z,4.81
2019-03-05T08:48:08.634Z,4.95
2019-03-05T08:50:42.034Z,5.20
2019-03-05T08:53:16.841Z,5.51
2019-03-05T08:55:50.318Z,5.79
2019-03-05T08:58:23.331Z,5.80
2019-03-05T09:00:56.419Z,5.43
2019-03-05T09:03:29.351Z,5.37
2019-03-05T09:06:02.632Z,5.29
2019-03-05T09:08:38.399Z,5.35
2019-03-05T09:11:10.624Z,5.37
2019-03-05T09:13:45.891Z,5.38
2019-03-05T09:16:19.183Z,5.33
2019-03-05T09:18:52.763Z,5.44
2019-03-05T09:21:27.213Z,5.34
2019-03-05T09:24:02.024Z,5.44
2019-03-05T09:26:35.450Z,5.37
2019-03-05T09:29:08.994Z,5.44
2019-03-05T09:31:42.523Z,5.57
2019-03-05T09:34:16.172Z,5.60
2019-03-05T09:36:51.315Z,5.56
2019-03-05T09:39:24.485Z,5.55
2019-03-05T09:41:57.853Z,5.39
2019-03-05T09:44:30.976Z,4.88
2019-03-05T09:47:04.388Z,4.84
2019-03-05T09:49:37.413Z,4.81
2019-03-05T09:52:10.420Z,4.78
2019-03-05T09:54:44.153Z,5.16
2019-03-05T09:57:17.618Z,5.40
2019-03-05T09:59:51.290Z,6.02
2019-03-05T10:02:24.743Z,5.84
2019-03-05T10:04:57.581Z,5.40
2019-03-05T10:07:30.464Z,5.44
2019-03-05T10:10:05.488Z,5.94
2019-03-05T10:12:38.837Z,6.81
2019-03-05T10:15:14.899Z,6.98
2019-03-05T10:17:50.035Z,6.51
2019-03-05T10:20:23.049Z,6.05
2019-03-05T10:22:58.007Z,6.23
2019-03-05T10:25:31.363Z,5.88
2019-03-05T10:28:03.967Z,6.11
2019-03-05T10:30:37.345Z,5.99
2019-03-05T10:33:11.482Z,6.02
2019-03-05T10:35:46.752Z,6.98
2019-03-05T10:38:20.256Z,6.94
2019-03-05T10:40:53.870Z,6.29
2019-03-05T10:43:27.694Z,6.06
2019-03-05T10:46:00.764Z,5.66
2019-03-05T10:48:34.772Z,5.43
2019-03-05T10:51:07.641Z,5.34
2019-03-05T10:53:41.186Z,5.43
2019-03-05T10:56:14.222Z,5.45
2019-03-05T10:58:48.092Z,5.42
2019-03-05T11:01:21.647Z,5.54
2019-03-05T11:03:55.349Z,5.79
2019-03-05T11:06:30.580Z,6.07
2019-03-05T11:09:04.517Z,6.07
2019-03-05T11:11:39.195Z,5.99
2019-03-05T11:14:12.296Z,6.35
2019-03-05T11:16:46.005Z,5.93
2019-03-05T11:19:19.465Z,5.45
2019-03-05T11:21:52.416Z,5.31
2019-03-05T11:24:25.111Z,5.43
2019-03-05T11:26:58.961Z,5.56
2019-03-05T11:29:32.165Z,5.44
2019-03-05T11:32:05.920Z,5.27
2019-03-05T11:34:38.992Z,5.53
2019-03-05T11:37:12.123Z,5.64
2019-03-05T11:39:45.545Z,5.67
2019-03-05T11:42:18.995Z,5.98
2019-03-05T11:45:03.939Z,6.21
2019-03-05T11:47:26.962Z,6.45
2019-03-05T11:50:00.887Z,6.14
2019-03-05T11:52:34.825Z,5.79
2019-03-05T11:55:09.622Z,5.56
2019-03-05T11:57:42.334Z,5.29
2019-03-05T12:00:42.179Z,5.24
2019-03-05T12:03:15.958Z,5.70
2019-03-05T12:05:49.380Z,6.62
2019-03-05T12:08:22.735Z,6.35
2019-03-05T12:10:55.999Z,6.52
2019-03-05T12:13:29.521Z,6.92
2019-03-05T12:16:07.572Z,7.03
2019-03-05T12:18:40.359Z,6.62
2019-03-05T12:21:15.265Z,6.70
2019-03-05T12:23:49.256Z,6.86
2019-03-05T12:26:22.698Z,6.71
2019-03-05T12:28:56.769Z,6.53
2019-03-05T12:31:30.546Z,6.46
2019-03-05T12:34:04.074Z,6.16
2019-03-05T12:36:36.848Z,6.20
2019-03-05T12:39:11.805Z,6.02
2019-03-05T12:41:45.408Z,6.00
2019-03-05T12:44:17.978Z,6.04
2019-03-05T12:46:51.084Z,6.05
2019-03-05T12:49:24.587Z,6.00
2019-03-05T12:51:59.093Z,6.15
2019-03-05T12:54:32.485Z,6.08
2019-03-05T12:57:05.981Z,6.38
2019-03-05T12:59:39.102Z,6.65
2019-03-05T13:02:12.081Z,6.99
2019-03-05T13:04:45.166Z,7.15
2019-03-05T13:07:19.025Z,7.41
2019-03-05T13:09:56.840Z,7.28
2019-03-05T13:12:28.203Z,7.24
2019-03-05T13:15:01.635Z,7.04
2019-03-05T13:17:35.018Z,7.01
2019-03-05T13:20:11.596Z,7.20
2019-03-05T13:22:45.692Z,7.13
2019-03-05T13:25:18.797Z,7.06
2019-03-05T13:27:52.207Z,6.82
2019-03-05T13:30:26.112Z,6.85
2019-03-05T13:33:01.194Z,6.85
2019-03-05T13:35:34.833Z,6.85
2019-03-05T13:38:09.505Z,7.10
2019-03-05T13:40:42.367Z,7.67
2019-03-05T13:43:16.132Z,8.11
2019-03-05T13:45:50.398Z,7.88
2019-03-05T13:48:57.958Z,8.23
2019-03-05T13:52:24.815Z,8.92
2019-03-05T13:55:12.918Z,10.19
2019-03-05T13:58:22.565Z,9.37
2019-03-05T14:00:56.076Z,8.44
2019-03-05T14:03:39.856Z,9.76
2019-03-05T14:06:44.788Z,8.86
2019-03-05T14:09:19.716Z,7.87
2019-03-05T14:11:52.935Z,8.08
2019-03-05T14:14:29.580Z,7.87
2019-03-05T14:17:22.661Z,7.64
2019-03-05T14:19:55.915Z,7.71
2019-03-05T14:22:29.327Z,7.45
2019-03-05T14:25:03.145Z,7.35
2019-03-05T14:27:36.741Z,7.35
2019-03-05T14:30:13.325Z,7.51
2019-03-05T14:32:46.219Z,7.44
2019-03-05T14:35:21.187Z,7.65
2019-03-05T14:37:55.145Z,8.13
2019-03-05T14:40:30.188Z,8.83
2019-03-05T14:43:05.884Z,9.21
2019-03-05T14:45:39.073Z,9.34
2019-03-05T14:48:12.283Z,9.62
2019-03-05T14:50:46.286Z,9.61
2019-03-05T14:53:19.747Z,9.11
2019-03-05T14:55:54.549Z,9.35
2019-03-05T14:58:28.259Z,9.92
2019-03-05T15:01:01.124Z,9.49
2019-03-05T15:03:35.750Z,9.51
2019-03-05T15:06:11.125Z,8.92
2019-03-05T15:08:44.697Z,8.86
2019-03-05T15:11:18.291Z,8.87
2019-03-05T15:13:51.353Z,8.99
2019-03-05T15:16:24.448Z,9.13
2019-03-05T15:18:58.247Z,9.09
2019-03-05T15:21:31.632Z,8.96
2019-03-05T15:24:04.684Z,9.02
2019-03-05T15:26:37.426Z,8.94
2019-03-05T15:29:10.881Z,8.78
2019-03-05T15:31:43.467Z,8.89
2019-03-05T15:34:16.860Z,8.63
2019-03-05T15:36:51.993Z,8.67
2019-03-05T15:39:25.095Z,8.63
2019-03-05T15:41:57.790Z,8.59
2019-03-05T15:44:31.148Z,8.59
2019-03-05T15:47:05.080Z,8.57
2019-03-05T15:49:38.514Z,8.65
2019-03-05T15:52:11.174Z,8.68
2019-03-05T15:54:44.726Z,8.76
2019-03-05T15:57:25.899Z,8.45
2019-03-05T15:59:53.476Z,8.00
2019-03-05T16:02:26.803Z,7.89
2019-03-05T16:05:11.105Z,7.75
2019-03-05T16:07:34.929Z,7.68
2019-03-05T16:10:09.002Z,7.47
2019-03-05T16:12:42.590Z,7.56
2019-03-05T16:15:18.593Z,7.52
2019-03-05T16:17:51.568Z,7.49
2019-03-05T16:20:26.099Z,7.44
2019-03-05T16:23:00.959Z,7.41
2019-03-05T16:25:33.941Z,7.37
2019-03-05T16:28:07.686Z,7.34
2019-03-05T16:31:03.843Z,7.41
2019-03-05T16:33:45.629Z,7.21
2019-03-05T16:36:48.736Z,7.10
2019-03-05T16:39:47.916Z,6.93
2019-03-05T16:42:38.192Z,6.90
2019-03-05T16:45:18.661Z,6.90
2019-03-05T16:48:14.179Z,6.91
2019-03-05T16:51:02.563Z,6.80
2019-03-05T16:53:54.243Z,6.71
2019-03-05T16:57:02.369Z,6.57
2019-03-05T16:59:55.154Z,6.43
2019-03-05T17:02:43.784Z,6.47
2019-03-05T17:05:38.099Z,6.42
2019-03-05T17:08:23.162Z,6.24
2019-03-05T17:11:25.315Z,6.26
2019-03-05T17:13:59.137Z,6.03
2019-03-05T17:16:32.555Z,5.98
2019-03-05T17:19:06.141Z,5.88
2019-03-05T17:21:39.984Z,5.72
2019-03-05T17:24:14.159Z,5.78
2019-03-05T17:26:47.250Z,5.84
2019-03-05T17:29:21.213Z,5.77
2019-03-05T17:31:53.871Z,5.72
2019-03-05T17:34:27.640Z,5.83
2019-03-05T17:37:01.469Z,5.82
2019-03-05T17:39:36.279Z,5.71
2019-03-05T17:42:09.763Z,5.64
2019-03-05T17:44:43.578Z,5.53
2019-03-05T17:47:16.315Z,5.60
2019-03-05T17:49:49.446Z,5.50
2019-03-05T17:52:23.316Z,5.45
2019-03-05T17:54:57.263Z,5.50
2019-03-05T17:57:30.244Z,5.46
2019-03-05T18:00:04.521Z,5.42
2019-03-05T18:02:40.474Z,5.27
2019-03-05T18:05:14.122Z,5.32
2019-03-05T18:07:47.219Z,5.34
2019-03-05T18:10:20.729Z,5.40
2019-03-05T18:12:55.029Z,5.26
2019-03-05T18:15:28.849Z,5.18
2019-03-05T18:18:02.242Z,5.23
2019-03-05T18:20:36.088Z,5.20
2019-03-05T18:23:09.606Z,5.34
2019-03-05T18:25:43.242Z,5.23
2019-03-05T18:28:16.748Z,5.49
2019-03-05T18:30:49.413Z,5.29
2019-03-05T18:33:22.801Z,5.13
2019-03-05T18:35:56.323Z,5.26
2019-03-05T18:38:30.200Z,5.14
2019-03-05T18:41:03.853Z,5.10
2019-03-05T18:43:37.388Z,5.03
2019-03-05T18:46:10.533Z,5.03
2019-03-05T18:48:44.062Z,5.14
2019-03-05T18:51:19.712Z,5.00
2019-03-05T18:53:53.243Z,5.22
2019-03-05T18:56:29.777Z,5.21
2019-03-05T18:59:03.852Z,5.13
2019-03-05T19:01:37.067Z,4.98
2019-03-05T19:04:11.072Z,5.13
2019-03-05T19:06:44.310Z,4.94
2019-03-05T19:09:18.872Z,4.94
2019-03-05T19:11:52.063Z,4.97
2019-03-05T19:14:26.245Z,5.04
2019-03-05T19:16:59.918Z,4.86
2019-03-05T19:19:33.054Z,5.09
2019-03-05T19:22:06.128Z,4.99
2019-03-05T19:24:39.888Z,4.90
2019-03-05T19:27:12.585Z,4.92
2019-03-05T19:29:46.185Z,4.77
2019-03-05T19:32:19.366Z,4.70
2019-03-05T19:34:53.091Z,4.76
2019-03-05T19:37:26.284Z,4.82
2019-03-05T19:39:59.411Z,4.73
2019-03-05T19:42:32.452Z,4.65
2019-03-05T19:45:06.167Z,4.68
2019-03-05T19:47:39.653Z,4.59
2019-03-05T19:50:14.757Z,4.63
2019-03-05T19:52:48.194Z,4.52
2019-03-05T19:55:22.125Z,4.47
2019-03-05T19:58:07.318Z,4.43
2019-03-05T20:00:49.353Z,4.43
2019-03-05T20:03:22.268Z,4.53
2019-03-05T20:05:56.678Z,4.54
2019-03-05T20:08:39.139Z,4.33
2019-03-05T20:11:04.490Z,4.49
2019-03-05T20:13:37.845Z,4.50
2019-03-05T20:16:12.405Z,4.38
2019-03-05T20:18:46.173Z,4.42
2019-03-05T20:21:19.735Z,4.48
2019-03-05T20:23:53.010Z,4.46
2019-03-05T20:26:26.602Z,4.50
2019-03-05T20:28:59.845Z,4.52
2019-03-05T20:31:33.763Z,4.73
2019-03-05T20:34:07.508Z,4.65
2019-03-05T20:36:41.227Z,4.58
2019-03-05T20:39:15.411Z,4.47
2019-03-05T20:41:49.592Z,4.47
2019-03-05T20:44:23.821Z,4.55
2019-03-05T20:46:57.051Z,4.57
2019-03-05T20:49:30.100Z,4.74
2019-03-05T20:52:03.870Z,4.61
2019-03-05T20:54:37.784Z,4.66
2019-03-05T20:57:10.558Z,4.77
2019-03-05T20:59:43.964Z,4.68
2019-03-05T21:02:16.962Z,4.72
2019-03-05T21:04:50.754Z,4.60
2019-03-05T21:07:24.306Z,4.65
2019-03-05T21:09:58.841Z,4.55
2019-03-05T21:12:32.700Z,4.69
2019-03-05T21:15:05.893Z,4.69
2019-03-05T21:17:39.927Z,4.61
2019-03-05T21:20:14.067Z,4.61
2019-03-05T21:22:47.125Z,4.46
2019-03-05T21:25:20.159Z,4.52
2019-03-05T21:27:54.399Z,4.30
2019-03-05T21:30:27.998Z,4.49
2019-03-05T21:33:01.095Z,4.33
2019-03-05T21:35:36.396Z,4.35
2019-03-05T21:38:10.229Z,4.31
2019-03-05T21:40:43.785Z,4.34
2019-03-05T21:43:17.841Z,4.28
2019-03-05T21:45:51.742Z,4.15
2019-03-05T21:48:25.552Z,4.03
2019-03-05T21:50:58.410Z,3.90
2019-03-05T21:53:32.042Z,4.10
2019-03-05T21:56:05.970Z,4.13
2019-03-05T21:58:39.401Z,4.15
2019-03-05T22:01:13.418Z,4.10
2019-03-05T22:03:46.837Z,4.09
2019-03-05T22:06:20.054Z,4.32
2019-03-05T22:08:53.285Z,4.17
2019-03-05T22:11:26.920Z,4.18
2019-03-05T22:14:00.735Z,4.18
2019-03-05T22:16:34.153Z,4.10
2019-03-05T22:19:07.313Z,4.04
2019-03-05T22:21:40.352Z,4.10
2019-03-05T22:24:13.496Z,4.03
2019-03-05T22:26:47.562Z,4.06
2019-03-05T22:29:22.113Z,4.08
2019-03-05T22:31:56.239Z,4.05
2019-03-05T22:34:29.206Z,4.09
2019-03-05T22:37:02.244Z,3.98
2019-03-05T22:39:35.722Z,4.15
2019-03-05T22:42:08.941Z,3.97
2019-03-05T22:44:41.622Z,4.06
2019-03-05T22:47:15.643Z,3.95
2019-03-05T22:49:48.830Z,4.09
2019-03-05T22:52:23.114Z,4.12
2019-03-05T22:54:57.065Z,3.99
2019-03-05T22:57:30.747Z,4.04
2019-03-05T23:00:08.732Z,4.03
2019-03-05T23:02:43.266Z,4.00
2019-03-05T23:05:17.325Z,3.91
2019-03-05T23:07:50.991Z,3.90
2019-03-05T23:10:24.411Z,3.97
2019-03-05T23:13:00.421Z,3.92
2019-03-05T23:15:38.137Z,3.91
2019-03-05T23:18:11.320Z,3.92
2019-03-05T23:20:44.076Z,3.85
2019-03-05T23:23:19.257Z,3.85
2019-03-05T23:25:53.201Z,3.81
2019-03-05T23:28:26.873Z,3.85
2019-03-05T23:31:00.048Z,3.71
2019-03-05T23:33:32.625Z,3.68
2019-03-05T23:36:05.647Z,3.55
2019-03-05T23:38:38.697Z,3.57
2019-03-05T23:41:12.102Z,3.55
2019-03-05T23:43:44.809Z,3.50
2019-03-05T23:46:18.283Z,3.46
